sensor_id;sensor_type;location;lat;lon;timestamp;temperature;humidity
64951;DHT22;51482;47.014;7.652;2022-08-19T00:00:09;17.90;99.90
64951;DHT22;51482;47.014;7.652;2022-08-19T00:02:36;18.20;99.90
64951;DHT22;51482;47.014;7.652;2022-08-19T00:05:03;18.00;99.90
64951;DHT22;51482;47.014;7.652;2022-08-19T00:07:28;18.00;99.90
64951;DHT22;51482;47.014;7.652;2022-08-19T00:09:54;18.10;99.90
64951;DHT22;51482;47.014;7.652;2022-08-19T00:12:20;18.40;99.90
64951;DHT22;51482;47.014;7.652;2022-08-19T00:14:45;18.10;99.90
64951;DHT22;51482;47.014;7.652;2022-08-19T00:17:11;18.50;99.90
64951;DHT22;51482;47.014;7.652;2022-08-19T00:19:38;18.10;99.90
64951;DHT22;51482;47.014;7.652;2022-08-19T00:22:04;18.50;99.90
64951;DHT22;51482;47.014;7.652;2022-08-19T00:24:31;18.70;99.90
64951;DHT22;51482;47.014;7.652;2022-08-19T00:26:57;18.20;99.90
64951;DHT22;51482;47.014;7.652;2022-08-19T00:29:24;18.20;99.90
64951;DHT22;51482;47.014;7.652;2022-08-19T00:31:51;18.30;99.90
64951;DHT22;51482;47.014;7.652;2022-08-19T00:34:20;18.00;99.90
64951;DHT22;51482;47.014;7.652;2022-08-19T00:36:47;18.80;99.90
64951;DHT22;51482;47.014;7.652;2022-08-19T00:39:17;18.70;99.90
64951;DHT22;51482;47.014;7.652;2022-08-19T00:41:44;18.50;99.90
64951;DHT22;51482;47.014;7.652;2022-08-19T00:44:20;18.50;99.90
64951;DHT22;51482;47.014;7.652;2022-08-19T00:46:48;18.00;99.90
64951;DHT22;51482;47.014;7.652;2022-08-19T00:49:22;17.90;99.90
64951;DHT22;51482;47.014;7.652;2022-08-19T00:51:53;18.00;99.90
64951;DHT22;51482;47.014;7.652;2022-08-19T00:54:21;18.00;99.90
64951;DHT22;51482;47.014;7.652;2022-08-19T00:56:47;18.30;99.90
64951;DHT22;51482;47.014;7.652;2022-08-19T00:59:15;18.30;99.90
64951;DHT22;51482;47.014;7.652;2022-08-19T01:01:43;18.00;99.90
64951;DHT22;51482;47.014;7.652;2022-08-19T01:04:09;18.00;99.90
64951;DHT22;51482;47.014;7.652;2022-08-19T01:06:37;18.00;99.90
64951;DHT22;51482;47.014;7.652;2022-08-19T01:09:03;18.40;99.90
64951;DHT22;51482;47.014;7.652;2022-08-19T01:11:31;18.10;99.90
64951;DHT22;51482;47.014;7.652;2022-08-19T01:13:58;17.90;99.90
64951;DHT22;51482;47.014;7.652;2022-08-19T01:16:27;17.90;99.90
64951;DHT22;51482;47.014;7.652;2022-08-19T01:18:53;17.90;99.90
64951;DHT22;51482;47.014;7.652;2022-08-19T01:23:44;18.10;99.90
64951;DHT22;51482;47.014;7.652;2022-08-19T01:26:16;17.90;99.90
64951;DHT22;51482;47.014;7.652;2022-08-19T01:28:44;17.90;99.90
64951;DHT22;51482;47.014;7.652;2022-08-19T01:31:17;17.90;99.90
64951;DHT22;51482;47.014;7.652;2022-08-19T01:33:44;17.90;99.90
64951;DHT22;51482;47.014;7.652;2022-08-19T01:36:16;17.90;99.90
64951;DHT22;51482;47.014;7.652;2022-08-19T01:38:47;17.90;99.90
64951;DHT22;51482;47.014;7.652;2022-08-19T01:41:16;18.50;99.90
64951;DHT22;51482;47.014;7.652;2022-08-19T01:43:42;18.10;99.90
64951;DHT22;51482;47.014;7.652;2022-08-19T01:46:08;17.90;99.90
64951;DHT22;51482;47.014;7.652;2022-08-19T01:48:37;18.10;99.90
64951;DHT22;51482;47.014;7.652;2022-08-19T01:51:04;17.90;99.90
64951;DHT22;51482;47.014;7.652;2022-08-19T01:53:30;17.90;99.90
64951;DHT22;51482;47.014;7.652;2022-08-19T01:55:55;17.90;99.90
64951;DHT22;51482;47.014;7.652;2022-08-19T01:58:27;18.00;99.90
64951;DHT22;51482;47.014;7.652;2022-08-19T02:00:56;18.60;99.90
64951;DHT22;51482;47.014;7.652;2022-08-19T02:03:22;18.60;99.90
64951;DHT22;51482;47.014;7.652;2022-08-19T02:05:53;18.00;99.90
64951;DHT22;51482;47.014;7.652;2022-08-19T02:08:18;18.00;99.90
64951;DHT22;51482;47.014;7.652;2022-08-19T02:10:44;18.40;99.90
64951;DHT22;51482;47.014;7.652;2022-08-19T02:13:10;18.00;99.90
64951;DHT22;51482;47.014;7.652;2022-08-19T02:15:36;17.90;99.90
64951;DHT22;51482;47.014;7.652;2022-08-19T02:18:02;17.90;99.90
64951;DHT22;51482;47.014;7.652;2022-08-19T02:20:28;17.90;99.90
64951;DHT22;51482;47.014;7.652;2022-08-19T02:22:53;18.10;99.90
64951;DHT22;51482;47.014;7.652;2022-08-19T02:25:19;18.00;99.90
64951;DHT22;51482;47.014;7.652;2022-08-19T02:27:45;18.30;99.90
64951;DHT22;51482;47.014;7.652;2022-08-19T02:30:13;18.60;99.90
64951;DHT22;51482;47.014;7.652;2022-08-19T02:32:39;18.00;99.90
64951;DHT22;51482;47.014;7.652;2022-08-19T02:35:05;18.00;99.90
64951;DHT22;51482;47.014;7.652;2022-08-19T02:37:30;17.90;99.90
64951;DHT22;51482;47.014;7.652;2022-08-19T02:40:15;18.10;99.90
64951;DHT22;51482;47.014;7.652;2022-08-19T02:42:43;17.90;99.90
64951;DHT22;51482;47.014;7.652;2022-08-19T02:45:09;17.90;99.90
64951;DHT22;51482;47.014;7.652;2022-08-19T02:47:35;17.90;99.90
64951;DHT22;51482;47.014;7.652;2022-08-19T02:50:02;17.90;99.90
64951;DHT22;51482;47.014;7.652;2022-08-19T02:52:28;18.10;99.90
64951;DHT22;51482;47.014;7.652;2022-08-19T02:54:54;18.50;99.90
64951;DHT22;51482;47.014;7.652;2022-08-19T02:57:22;18.00;99.90
64951;DHT22;51482;47.014;7.652;2022-08-19T02:59:48;18.30;99.90
64951;DHT22;51482;47.014;7.652;2022-08-19T03:02:13;18.30;99.90
64951;DHT22;51482;47.014;7.652;2022-08-19T03:04:39;17.90;99.90
64951;DHT22;51482;47.014;7.652;2022-08-19T03:07:04;18.30;99.90
64951;DHT22;51482;47.014;7.652;2022-08-19T03:09:30;18.20;99.90
64951;DHT22;51482;47.014;7.652;2022-08-19T03:11:56;17.30;99.90
64951;DHT22;51482;47.014;7.652;2022-08-19T03:14:21;17.90;99.90
64951;DHT22;51482;47.014;7.652;2022-08-19T03:16:50;18.40;99.90
64951;DHT22;51482;47.014;7.652;2022-08-19T03:19:17;18.20;99.90
64951;DHT22;51482;47.014;7.652;2022-08-19T03:21:43;18.30;99.90
64951;DHT22;51482;47.014;7.652;2022-08-19T03:24:13;17.90;99.90
64951;DHT22;51482;47.014;7.652;2022-08-19T03:26:41;17.90;99.90
64951;DHT22;51482;47.014;7.652;2022-08-19T03:29:08;17.90;99.90
64951;DHT22;51482;47.014;7.652;2022-08-19T03:31:36;17.90;99.90
64951;DHT22;51482;47.014;7.652;2022-08-19T03:34:02;18.00;99.90
64951;DHT22;51482;47.014;7.652;2022-08-19T03:36:28;17.90;99.90
64951;DHT22;51482;47.014;7.652;2022-08-19T03:38:56;17.90;99.90
64951;DHT22;51482;47.014;7.652;2022-08-19T03:41:32;17.90;99.90
64951;DHT22;51482;47.014;7.652;2022-08-19T03:43:58;17.90;99.90
64951;DHT22;51482;47.014;7.652;2022-08-19T03:46:29;17.80;99.90
64951;DHT22;51482;47.014;7.652;2022-08-19T03:48:58;17.80;99.90
64951;DHT22;51482;47.014;7.652;2022-08-19T03:51:28;17.80;99.90
64951;DHT22;51482;47.014;7.652;2022-08-19T03:53:56;17.80;99.90
64951;DHT22;51482;47.014;7.652;2022-08-19T03:56:22;18.40;99.90
64951;DHT22;51482;47.014;7.652;2022-08-19T03:58:50;18.60;99.90
64951;DHT22;51482;47.014;7.652;2022-08-19T04:01:19;17.90;99.90
64951;DHT22;51482;47.014;7.652;2022-08-19T04:03:45;17.90;99.90
64951;DHT22;51482;47.014;7.652;2022-08-19T04:06:19;18.40;99.90
64951;DHT22;51482;47.014;7.652;2022-08-19T04:08:48;17.90;99.90
64951;DHT22;51482;47.014;7.652;2022-08-19T04:11:24;18.30;99.90
64951;DHT22;51482;47.014;7.652;2022-08-19T04:13:50;18.50;99.90
64951;DHT22;51482;47.014;7.652;2022-08-19T04:16:18;17.90;99.90
64951;DHT22;51482;47.014;7.652;2022-08-19T04:18:43;18.00;99.90
64951;DHT22;51482;47.014;7.652;2022-08-19T04:21:16;18.00;99.90
64951;DHT22;51482;47.014;7.652;2022-08-19T04:23:42;18.40;99.90
64951;DHT22;51482;47.014;7.652;2022-08-19T04:26:15;17.90;99.90
64951;DHT22;51482;47.014;7.652;2022-08-19T04:28:41;17.90;99.90
64951;DHT22;51482;47.014;7.652;2022-08-19T04:31:13;17.90;99.90
64951;DHT22;51482;47.014;7.652;2022-08-19T04:33:39;18.50;99.90
64951;DHT22;51482;47.014;7.652;2022-08-19T04:36:04;18.60;99.90
64951;DHT22;51482;47.014;7.652;2022-08-19T04:38:30;17.80;99.90
64951;DHT22;51482;47.014;7.652;2022-08-19T04:40:56;17.50;99.90
64951;DHT22;51482;47.014;7.652;2022-08-19T04:43:40;17.80;99.90
64951;DHT22;51482;47.014;7.652;2022-08-19T04:46:11;17.80;99.90
64951;DHT22;51482;47.014;7.652;2022-08-19T04:48:37;17.90;99.90
64951;DHT22;51482;47.014;7.652;2022-08-19T04:51:07;18.40;99.90
64951;DHT22;51482;47.014;7.652;2022-08-19T04:53:34;17.90;99.90
64951;DHT22;51482;47.014;7.652;2022-08-19T04:56:05;17.90;99.90
64951;DHT22;51482;47.014;7.652;2022-08-19T04:58:32;17.90;99.90
64951;DHT22;51482;47.014;7.652;2022-08-19T05:00:58;18.40;99.90
64951;DHT22;51482;47.014;7.652;2022-08-19T05:03:26;18.40;99.90
64951;DHT22;51482;47.014;7.652;2022-08-19T05:05:52;18.10;99.90
64951;DHT22;51482;47.014;7.652;2022-08-19T05:08:19;17.80;99.90
64951;DHT22;51482;47.014;7.652;2022-08-19T05:10:47;17.80;99.90
64951;DHT22;51482;47.014;7.652;2022-08-19T05:13:14;18.20;99.90
64951;DHT22;51482;47.014;7.652;2022-08-19T05:15:42;17.80;99.90
64951;DHT22;51482;47.014;7.652;2022-08-19T05:18:07;18.10;99.90
64951;DHT22;51482;47.014;7.652;2022-08-19T05:20:52;17.80;99.90
64951;DHT22;51482;47.014;7.652;2022-08-19T05:23:36;18.30;99.90
64951;DHT22;51482;47.014;7.652;2022-08-19T05:26:02;18.40;99.90
64951;DHT22;51482;47.014;7.652;2022-08-19T05:28:28;17.70;99.90
64951;DHT22;51482;47.014;7.652;2022-08-19T05:30:53;17.90;99.90
64951;DHT22;51482;47.014;7.652;2022-08-19T05:33:21;18.80;99.90
64951;DHT22;51482;47.014;7.652;2022-08-19T05:35:47;17.90;99.90
64951;DHT22;51482;47.014;7.652;2022-08-19T05:38:15;17.90;99.90
64951;DHT22;51482;47.014;7.652;2022-08-19T05:40:41;18.50;99.90
64951;DHT22;51482;47.014;7.652;2022-08-19T05:43:08;18.50;99.90
64951;DHT22;51482;47.014;7.652;2022-08-19T05:45:39;17.90;99.90
64951;DHT22;51482;47.014;7.652;2022-08-19T05:48:05;17.90;99.90
64951;DHT22;51482;47.014;7.652;2022-08-19T05:50:30;17.90;99.90
64951;DHT22;51482;47.014;7.652;2022-08-19T05:52:56;18.00;99.90
64951;DHT22;51482;47.014;7.652;2022-08-19T05:55:22;18.10;99.90
64951;DHT22;51482;47.014;7.652;2022-08-19T05:57:49;19.00;99.90
64951;DHT22;51482;47.014;7.652;2022-08-19T06:00:14;18.60;99.90
64951;DHT22;51482;47.014;7.652;2022-08-19T06:02:41;18.60;99.90
64951;DHT22;51482;47.014;7.652;2022-08-19T06:05:07;18.90;99.90
64951;DHT22;51482;47.014;7.652;2022-08-19T06:07:35;18.60;99.90
64951;DHT22;51482;47.014;7.652;2022-08-19T06:10:01;18.50;99.90
64951;DHT22;51482;47.014;7.652;2022-08-19T06:12:28;18.90;99.90
64951;DHT22;51482;47.014;7.652;2022-08-19T06:15:00;18.40;99.90
64951;DHT22;51482;47.014;7.652;2022-08-19T06:17:27;18.70;99.90
64951;DHT22;51482;47.014;7.652;2022-08-19T06:19:53;18.30;99.90
64951;DHT22;51482;47.014;7.652;2022-08-19T06:22:18;18.20;99.90
64951;DHT22;51482;47.014;7.652;2022-08-19T06:24:44;18.80;99.90
64951;DHT22;51482;47.014;7.652;2022-08-19T06:27:09;18.50;99.90
64951;DHT22;51482;47.014;7.652;2022-08-19T06:29:35;18.20;99.90
64951;DHT22;51482;47.014;7.652;2022-08-19T06:32:02;18.80;99.90
64951;DHT22;51482;47.014;7.652;2022-08-19T06:34:30;18.30;99.90
64951;DHT22;51482;47.014;7.652;2022-08-19T06:36:58;18.20;99.90
64951;DHT22;51482;47.014;7.652;2022-08-19T06:39:30;18.20;99.90
64951;DHT22;51482;47.014;7.652;2022-08-19T06:42:00;18.20;99.90
64951;DHT22;51482;47.014;7.652;2022-08-19T06:44:28;18.10;99.90
64951;DHT22;51482;47.014;7.652;2022-08-19T06:46:54;18.10;99.90
64951;DHT22;51482;47.014;7.652;2022-08-19T06:49:20;18.60;99.90
64951;DHT22;51482;47.014;7.652;2022-08-19T06:51:47;18.70;99.90
64951;DHT22;51482;47.014;7.652;2022-08-19T06:54:15;17.70;99.90
64951;DHT22;51482;47.014;7.652;2022-08-19T06:56:41;18.10;99.90
64951;DHT22;51482;47.014;7.652;2022-08-19T06:59:10;18.20;99.90
64951;DHT22;51482;47.014;7.652;2022-08-19T07:01:42;18.20;99.90
64951;DHT22;51482;47.014;7.652;2022-08-19T07:04:09;18.40;99.90
64951;DHT22;51482;47.014;7.652;2022-08-19T07:06:36;18.20;99.90
64951;DHT22;51482;47.014;7.652;2022-08-19T07:09:03;18.40;99.90
64951;DHT22;51482;47.014;7.652;2022-08-19T07:11:29;18.20;99.90
64951;DHT22;51482;47.014;7.652;2022-08-19T07:13:56;18.20;99.90
64951;DHT22;51482;47.014;7.652;2022-08-19T07:16:22;18.60;99.90
64951;DHT22;51482;47.014;7.652;2022-08-19T07:18:48;18.10;99.90
64951;DHT22;51482;47.014;7.652;2022-08-19T07:21:20;18.10;99.90
64951;DHT22;51482;47.014;7.652;2022-08-19T07:23:47;18.60;99.90
64951;DHT22;51482;47.014;7.652;2022-08-19T07:26:17;18.20;99.90
64951;DHT22;51482;47.014;7.652;2022-08-19T07:28:43;18.80;99.90
64951;DHT22;51482;47.014;7.652;2022-08-19T07:31:15;18.70;99.90
64951;DHT22;51482;47.014;7.652;2022-08-19T07:33:43;18.20;99.90
64951;DHT22;51482;47.014;7.652;2022-08-19T07:36:11;18.50;99.90
64951;DHT22;51482;47.014;7.652;2022-08-19T07:38:39;18.20;99.90
64951;DHT22;51482;47.014;7.652;2022-08-19T07:41:06;18.60;99.90
64951;DHT22;51482;47.014;7.652;2022-08-19T07:43:31;18.90;99.90
64951;DHT22;51482;47.014;7.652;2022-08-19T07:45:57;18.60;99.90
64951;DHT22;51482;47.014;7.652;2022-08-19T07:48:24;18.30;99.90
64951;DHT22;51482;47.014;7.652;2022-08-19T07:50:55;18.60;99.90
64951;DHT22;51482;47.014;7.652;2022-08-19T07:53:23;18.40;99.90
64951;DHT22;51482;47.014;7.652;2022-08-19T07:55:48;18.40;99.90
64951;DHT22;51482;47.014;7.652;2022-08-19T07:58:16;18.30;99.90
64951;DHT22;51482;47.014;7.652;2022-08-19T08:00:43;18.30;99.90
64951;DHT22;51482;47.014;7.652;2022-08-19T08:03:10;18.90;99.90
64951;DHT22;51482;47.014;7.652;2022-08-19T08:05:36;18.40;99.90
64951;DHT22;51482;47.014;7.652;2022-08-19T08:08:20;18.30;99.90
64951;DHT22;51482;47.014;7.652;2022-08-19T08:11:05;18.80;99.90
64951;DHT22;51482;47.014;7.652;2022-08-19T08:13:31;18.50;99.90
64951;DHT22;51482;47.014;7.652;2022-08-19T08:15:58;18.50;99.90
64951;DHT22;51482;47.014;7.652;2022-08-19T08:18:24;19.00;99.90
64951;DHT22;51482;47.014;7.652;2022-08-19T08:20:50;18.50;99.90
64951;DHT22;51482;47.014;7.652;2022-08-19T08:23:16;18.30;99.90
64951;DHT22;51482;47.014;7.652;2022-08-19T08:25:48;18.50;99.90
64951;DHT22;51482;47.014;7.652;2022-08-19T08:28:14;18.50;99.90
64951;DHT22;51482;47.014;7.652;2022-08-19T08:30:40;18.60;99.90
64951;DHT22;51482;47.014;7.652;2022-08-19T08:33:09;18.60;99.90
64951;DHT22;51482;47.014;7.652;2022-08-19T08:35:35;19.00;99.90
64951;DHT22;51482;47.014;7.652;2022-08-19T08:38:00;18.70;99.90
64951;DHT22;51482;47.014;7.652;2022-08-19T08:40:48;18.70;99.90
64951;DHT22;51482;47.014;7.652;2022-08-19T08:43:30;18.60;99.90
64951;DHT22;51482;47.014;7.652;2022-08-19T08:46:10;18.70;99.90
64951;DHT22;51482;47.014;7.652;2022-08-19T08:48:47;19.00;99.90
64951;DHT22;51482;47.014;7.652;2022-08-19T08:52:04;19.10;99.90
64951;DHT22;51482;47.014;7.652;2022-08-19T08:54:06;18.80;99.90
64951;DHT22;51482;47.014;7.652;2022-08-19T08:56:33;19.40;99.90
64951;DHT22;51482;47.014;7.652;2022-08-19T08:59:12;18.80;99.90
64951;DHT22;51482;47.014;7.652;2022-08-19T09:01:42;19.00;99.90
64951;DHT22;51482;47.014;7.652;2022-08-19T09:04:08;18.40;99.90
64951;DHT22;51482;47.014;7.652;2022-08-19T09:09:34;18.80;99.90
64951;DHT22;51482;47.014;7.652;2022-08-19T09:12:34;18.90;99.90
64951;DHT22;51482;47.014;7.652;2022-08-19T09:15:04;19.00;99.90
64951;DHT22;51482;47.014;7.652;2022-08-19T09:17:31;19.10;99.90
64951;DHT22;51482;47.014;7.652;2022-08-19T09:20:00;19.60;99.90
64951;DHT22;51482;47.014;7.652;2022-08-19T09:22:30;19.30;99.90
64951;DHT22;51482;47.014;7.652;2022-08-19T09:24:56;19.30;99.90
64951;DHT22;51482;47.014;7.652;2022-08-19T09:27:23;19.50;99.90
64951;DHT22;51482;47.014;7.652;2022-08-19T09:29:52;19.70;99.90
64951;DHT22;51482;47.014;7.652;2022-08-19T09:32:20;19.40;99.90
64951;DHT22;51482;47.014;7.652;2022-08-19T09:34:46;19.80;99.90
64951;DHT22;51482;47.014;7.652;2022-08-19T09:37:11;19.60;99.90
64951;DHT22;51482;47.014;7.652;2022-08-19T09:39:38;19.70;99.90
64951;DHT22;51482;47.014;7.652;2022-08-19T09:42:08;19.80;99.90
64951;DHT22;51482;47.014;7.652;2022-08-19T09:44:40;19.80;99.90
64951;DHT22;51482;47.014;7.652;2022-08-19T09:47:06;19.80;99.90
64951;DHT22;51482;47.014;7.652;2022-08-19T09:49:32;20.30;99.90
64951;DHT22;51482;47.014;7.652;2022-08-19T09:51:58;19.80;99.90
64951;DHT22;51482;47.014;7.652;2022-08-19T09:54:24;20.50;99.90
64951;DHT22;51482;47.014;7.652;2022-08-19T09:56:50;19.90;99.90
64951;DHT22;51482;47.014;7.652;2022-08-19T09:59:15;19.90;99.90
64951;DHT22;51482;47.014;7.652;2022-08-19T10:01:41;20.30;99.90
64951;DHT22;51482;47.014;7.652;2022-08-19T10:04:07;19.40;99.90
64951;DHT22;51482;47.014;7.652;2022-08-19T10:06:34;19.80;99.90
64951;DHT22;51482;47.014;7.652;2022-08-19T10:09:01;19.70;99.90
64951;DHT22;51482;47.014;7.652;2022-08-19T10:11:29;19.70;99.90
64951;DHT22;51482;47.014;7.652;2022-08-19T10:13:55;19.60;99.90
64951;DHT22;51482;47.014;7.652;2022-08-19T10:16:23;19.50;99.90
64951;DHT22;51482;47.014;7.652;2022-08-19T10:18:50;19.90;99.90
64951;DHT22;51482;47.014;7.652;2022-08-19T10:21:19;19.60;99.90
64951;DHT22;51482;47.014;7.652;2022-08-19T10:23:49;19.60;99.90
64951;DHT22;51482;47.014;7.652;2022-08-19T10:26:21;20.00;99.90
64951;DHT22;51482;47.014;7.652;2022-08-19T10:28:47;19.50;99.90
64951;DHT22;51482;47.014;7.652;2022-08-19T10:31:16;19.40;99.90
64951;DHT22;51482;47.014;7.652;2022-08-19T10:33:43;19.40;99.90
64951;DHT22;51482;47.014;7.652;2022-08-19T10:36:12;19.20;99.90
64951;DHT22;51482;47.014;7.652;2022-08-19T10:38:40;19.20;99.90
64951;DHT22;51482;47.014;7.652;2022-08-19T10:41:12;19.20;99.90
64951;DHT22;51482;47.014;7.652;2022-08-19T10:43:39;19.00;99.90
64951;DHT22;51482;47.014;7.652;2022-08-19T10:46:07;19.80;99.90
64951;DHT22;51482;47.014;7.652;2022-08-19T10:48:33;19.00;99.90
64951;DHT22;51482;47.014;7.652;2022-08-19T10:51:00;19.00;99.90
64951;DHT22;51482;47.014;7.652;2022-08-19T10:53:44;18.80;99.90
64951;DHT22;51482;47.014;7.652;2022-08-19T10:56:11;18.80;99.90
64951;DHT22;51482;47.014;7.652;2022-08-19T10:58:56;19.50;99.90
64951;DHT22;51482;47.014;7.652;2022-08-19T11:01:23;18.80;99.90
64951;DHT22;51482;47.014;7.652;2022-08-19T11:03:49;18.70;99.90
64951;DHT22;51482;47.014;7.652;2022-08-19T11:06:15;19.00;99.90
64951;DHT22;51482;47.014;7.652;2022-08-19T11:08:41;19.00;99.90
64951;DHT22;51482;47.014;7.652;2022-08-19T11:11:11;19.00;99.90
64951;DHT22;51482;47.014;7.652;2022-08-19T11:13:39;19.00;99.90
64951;DHT22;51482;47.014;7.652;2022-08-19T11:16:08;19.20;99.90
64951;DHT22;51482;47.014;7.652;2022-08-19T11:18:39;18.90;99.90
64951;DHT22;51482;47.014;7.652;2022-08-19T11:21:22;18.40;99.90
64951;DHT22;51482;47.014;7.652;2022-08-19T11:23:50;19.50;99.90
64951;DHT22;51482;47.014;7.652;2022-08-19T11:26:17;19.00;99.90
64951;DHT22;51482;47.014;7.652;2022-08-19T11:28:43;19.70;99.90
64951;DHT22;51482;47.014;7.652;2022-08-19T11:31:21;19.50;99.90
64951;DHT22;51482;47.014;7.652;2022-08-19T11:33:51;19.60;99.90
64951;DHT22;51482;47.014;7.652;2022-08-19T11:36:17;19.70;99.90
64951;DHT22;51482;47.014;7.652;2022-08-19T11:38:45;20.10;99.90
64951;DHT22;51482;47.014;7.652;2022-08-19T11:41:10;20.30;99.90
64951;DHT22;51482;47.014;7.652;2022-08-19T11:43:36;19.90;99.90
64951;DHT22;51482;47.014;7.652;2022-08-19T11:46:07;20.40;99.90
64951;DHT22;51482;47.014;7.652;2022-08-19T11:48:34;20.60;99.90
64951;DHT22;51482;47.014;7.652;2022-08-19T11:51:04;19.80;99.90
64951;DHT22;51482;47.014;7.652;2022-08-19T11:53:31;19.80;99.90
64951;DHT22;51482;47.014;7.652;2022-08-19T11:55:57;20.40;99.90
64951;DHT22;51482;47.014;7.652;2022-08-19T11:58:23;20.00;99.90
64951;DHT22;51482;47.014;7.652;2022-08-19T12:00:50;20.00;99.90
64951;DHT22;51482;47.014;7.652;2022-08-19T12:03:16;20.20;99.90
64951;DHT22;51482;47.014;7.652;2022-08-19T12:05:42;20.10;99.90
64951;DHT22;51482;47.014;7.652;2022-08-19T12:08:07;20.10;99.90
64951;DHT22;51482;47.014;7.652;2022-08-19T12:10:34;20.20;99.90
64951;DHT22;51482;47.014;7.652;2022-08-19T12:13:00;20.80;99.90
64951;DHT22;51482;47.014;7.652;2022-08-19T12:15:27;20.70;99.90
64951;DHT22;51482;47.014;7.652;2022-08-19T12:17:55;20.90;99.90
64951;DHT22;51482;47.014;7.652;2022-08-19T12:20:22;20.50;99.90
64951;DHT22;51482;47.014;7.652;2022-08-19T12:22:48;21.00;99.90
64951;DHT22;51482;47.014;7.652;2022-08-19T12:25:14;20.80;99.90
64951;DHT22;51482;47.014;7.652;2022-08-19T12:27:40;20.50;99.90
64951;DHT22;51482;47.014;7.652;2022-08-19T12:30:08;19.90;99.90
64951;DHT22;51482;47.014;7.652;2022-08-19T12:32:34;20.50;99.90
64951;DHT22;51482;47.014;7.652;2022-08-19T12:35:00;21.40;99.90
64951;DHT22;51482;47.014;7.652;2022-08-19T12:37:26;20.40;99.90
64951;DHT22;51482;47.014;7.652;2022-08-19T12:39:52;20.50;99.90
64951;DHT22;51482;47.014;7.652;2022-08-19T12:42:17;20.70;99.90
64951;DHT22;51482;47.014;7.652;2022-08-19T12:44:44;20.30;99.90
64951;DHT22;51482;47.014;7.652;2022-08-19T12:47:12;20.20;99.90
64951;DHT22;51482;47.014;7.652;2022-08-19T12:49:42;20.30;99.90
64951;DHT22;51482;47.014;7.652;2022-08-19T12:52:08;20.90;99.90
64951;DHT22;51482;47.014;7.652;2022-08-19T12:54:35;20.90;99.90
64951;DHT22;51482;47.014;7.652;2022-08-19T12:57:05;20.20;99.90
64951;DHT22;51482;47.014;7.652;2022-08-19T12:59:32;20.20;99.90
64951;DHT22;51482;47.014;7.652;2022-08-19T13:01:58;20.70;99.90
64951;DHT22;51482;47.014;7.652;2022-08-19T13:04:24;20.10;99.90
64951;DHT22;51482;47.014;7.652;2022-08-19T13:06:50;20.00;99.90
64951;DHT22;51482;47.014;7.652;2022-08-19T13:09:15;20.00;99.90
64951;DHT22;51482;47.014;7.652;2022-08-19T13:11:41;20.00;99.90
64951;DHT22;51482;47.014;7.652;2022-08-19T13:14:06;20.40;99.90
64951;DHT22;51482;47.014;7.652;2022-08-19T13:16:32;19.70;99.90
64951;DHT22;51482;47.014;7.652;2022-08-19T13:18:58;19.60;99.90
64951;DHT22;51482;47.014;7.652;2022-08-19T13:21:26;19.60;99.90
64951;DHT22;51482;47.014;7.652;2022-08-19T13:23:53;19.10;99.90
64951;DHT22;51482;47.014;7.652;2022-08-19T13:26:19;19.60;99.90
64951;DHT22;51482;47.014;7.652;2022-08-19T13:28:45;19.90;99.90
64951;DHT22;51482;47.014;7.652;2022-08-19T13:31:32;19.50;99.90
64951;DHT22;51482;47.014;7.652;2022-08-19T13:34:19;19.50;99.90
64951;DHT22;51482;47.014;7.652;2022-08-19T13:36:52;20.00;99.90
64951;DHT22;51482;47.014;7.652;2022-08-19T13:39:18;19.40;99.90
64951;DHT22;51482;47.014;7.652;2022-08-19T13:41:45;19.40;99.90
64951;DHT22;51482;47.014;7.652;2022-08-19T13:44:14;19.40;99.90
64951;DHT22;51482;47.014;7.652;2022-08-19T13:46:40;19.50;99.90
64951;DHT22;51482;47.014;7.652;2022-08-19T13:49:09;19.40;99.90
64951;DHT22;51482;47.014;7.652;2022-08-19T13:51:36;19.50;99.90
64951;DHT22;51482;47.014;7.652;2022-08-19T13:54:02;19.50;99.90
64951;DHT22;51482;47.014;7.652;2022-08-19T13:56:28;19.60;99.90
64951;DHT22;51482;47.014;7.652;2022-08-19T13:58:53;19.70;99.90
64951;DHT22;51482;47.014;7.652;2022-08-19T14:01:23;20.00;99.90
64951;DHT22;51482;47.014;7.652;2022-08-19T14:03:49;19.70;99.90
64951;DHT22;51482;47.014;7.652;2022-08-19T14:06:15;19.60;99.90
64951;DHT22;51482;47.014;7.652;2022-08-19T14:08:42;19.70;99.90
64951;DHT22;51482;47.014;7.652;2022-08-19T14:11:08;19.50;99.90
64951;DHT22;51482;47.014;7.652;2022-08-19T14:13:34;20.10;99.90
64951;DHT22;51482;47.014;7.652;2022-08-19T14:16:00;19.50;99.90
64951;DHT22;51482;47.014;7.652;2022-08-19T14:18:27;19.50;99.90
64951;DHT22;51482;47.014;7.652;2022-08-19T14:20:53;19.50;99.90
64951;DHT22;51482;47.014;7.652;2022-08-19T14:23:19;20.20;99.90
64951;DHT22;51482;47.014;7.652;2022-08-19T14:25:45;19.50;99.90
64951;DHT22;51482;47.014;7.652;2022-08-19T14:28:11;19.40;99.90
64951;DHT22;51482;47.014;7.652;2022-08-19T14:30:37;19.40;99.90
64951;DHT22;51482;47.014;7.652;2022-08-19T14:33:05;19.30;99.90
64951;DHT22;51482;47.014;7.652;2022-08-19T14:35:32;19.60;99.90
64951;DHT22;51482;47.014;7.652;2022-08-19T14:38:03;19.60;99.90
64951;DHT22;51482;47.014;7.652;2022-08-19T14:40:30;19.30;99.90
64951;DHT22;51482;47.014;7.652;2022-08-19T14:42:58;19.00;99.90
64951;DHT22;51482;47.014;7.652;2022-08-19T14:45:27;19.80;99.90
64951;DHT22;51482;47.014;7.652;2022-08-19T14:47:53;19.80;99.90
64951;DHT22;51482;47.014;7.652;2022-08-19T14:50:20;19.60;99.90
64951;DHT22;51482;47.014;7.652;2022-08-19T14:52:46;19.90;99.90
64951;DHT22;51482;47.014;7.652;2022-08-19T14:55:16;19.90;99.90
64951;DHT22;51482;47.014;7.652;2022-08-19T14:57:43;19.50;99.90
64951;DHT22;51482;47.014;7.652;2022-08-19T15:00:10;20.00;99.90
64951;DHT22;51482;47.014;7.652;2022-08-19T15:02:40;19.50;99.90
64951;DHT22;51482;47.014;7.652;2022-08-19T15:05:06;19.00;99.90
64951;DHT22;51482;47.014;7.652;2022-08-19T15:07:32;19.60;99.90
64951;DHT22;51482;47.014;7.652;2022-08-19T15:09:58;19.80;99.90
64951;DHT22;51482;47.014;7.652;2022-08-19T15:12:24;19.40;99.90
64951;DHT22;51482;47.014;7.652;2022-08-19T15:14:50;19.20;99.90
64951;DHT22;51482;47.014;7.652;2022-08-19T15:17:17;19.40;99.90
64951;DHT22;51482;47.014;7.652;2022-08-19T15:19:43;19.40;99.90
64951;DHT22;51482;47.014;7.652;2022-08-19T15:22:09;19.50;99.90
64951;DHT22;51482;47.014;7.652;2022-08-19T15:24:34;19.50;99.90
64951;DHT22;51482;47.014;7.652;2022-08-19T15:27:01;19.60;99.90
64951;DHT22;51482;47.014;7.652;2022-08-19T15:29:27;19.60;99.90
64951;DHT22;51482;47.014;7.652;2022-08-19T15:31:53;19.60;99.90
64951;DHT22;51482;47.014;7.652;2022-08-19T15:34:23;19.70;99.90
64951;DHT22;51482;47.014;7.652;2022-08-19T15:36:51;19.70;99.90
64951;DHT22;51482;47.014;7.652;2022-08-19T15:39:17;20.60;99.90